createdAt,value
2018-02-27T00:01:38.024Z,96.80
2018-02-27T00:04:06.263Z,97.50
2018-02-27T00:06:34.525Z,97.10
2018-02-27T00:09:01.999Z,97.10
2018-02-27T00:11:30.238Z,97.70
2018-02-27T00:13:57.726Z,97.70
2018-02-27T00:16:25.989Z,97.40
2018-02-27T00:18:53.478Z,97.30
2018-02-27T00:21:21.733Z,98.20
2018-02-27T00:23:49.977Z,98.20
2018-02-27T00:26:17.468Z,97.70
2018-02-27T00:28:44.963Z,97.80
2018-02-27T00:31:12.447Z,97.50
2018-02-27T00:33:39.917Z,98.90
2018-02-27T00:36:07.414Z,98.60
2018-02-27T00:38:35.652Z,98.40
2018-02-27T00:41:03.239Z,98.40
2018-02-27T00:43:31.491Z,99.00
2018-02-27T00:45:58.984Z,98.70
2018-02-27T00:48:27.245Z,98.20
2018-02-27T00:50:54.843Z,98.20
2018-02-27T00:53:22.381Z,98.90
2018-02-27T00:55:50.647Z,99.30
2018-02-27T00:58:18.885Z,99.20
2018-02-27T01:00:46.481Z,99.20
2018-02-27T01:03:13.951Z,98.70
2018-02-27T01:05:42.218Z,98.80
2018-02-27T01:08:10.462Z,98.40
2018-02-27T01:10:37.952Z,98.40
2018-02-27T01:13:06.204Z,99.00
2018-02-27T01:15:33.676Z,98.90
2018-02-27T01:18:01.948Z,99.90
2018-02-27T01:20:29.433Z,99.90
2018-02-27T01:22:56.929Z,99.40
2018-02-27T01:25:24.422Z,99.90
2018-02-27T01:27:51.996Z,99.70
2018-02-27T01:30:20.240Z,99.30
2018-02-27T01:32:49.244Z,99.70
2018-02-27T01:35:16.739Z,99.70
2018-02-27T01:37:44.237Z,99.90
2018-02-27T01:40:11.718Z,99.90
2018-02-27T01:42:39.212Z,99.90
2018-02-27T01:45:06.683Z,99.90
2018-02-27T01:47:34.200Z,99.90
2018-02-27T01:50:01.710Z,99.90
2018-02-27T01:52:29.195Z,99.90
2018-02-27T01:54:56.677Z,99.90
2018-02-27T01:57:24.930Z,99.90
2018-02-27T01:59:52.409Z,99.90
2018-02-27T02:02:19.898Z,99.90
2018-02-27T02:04:48.134Z,99.90
2018-02-27T02:07:15.625Z,99.90
2018-02-27T02:09:43.113Z,99.90
2018-02-27T02:12:10.599Z,99.90
2018-02-27T02:14:38.093Z,99.90
2018-02-27T02:17:05.578Z,99.90
2018-02-27T02:19:33.072Z,99.90
2018-02-27T02:22:00.545Z,99.90
2018-02-27T02:24:28.030Z,99.90
2018-02-27T02:26:55.497Z,99.90
2018-02-27T02:29:22.971Z,99.90
2018-02-27T02:31:50.444Z,99.90
2018-02-27T02:34:17.927Z,99.90
2018-02-27T02:36:45.407Z,99.90
2018-02-27T02:39:13.667Z,99.90
2018-02-27T02:41:41.923Z,99.90
2018-02-27T02:44:09.424Z,99.90
2018-02-27T02:46:36.909Z,99.90
2018-02-27T02:49:04.405Z,99.90
2018-02-27T02:51:31.885Z,99.90
2018-02-27T02:54:00.150Z,99.90
2018-02-27T02:56:27.634Z,99.90
2018-02-27T02:58:55.118Z,99.90
2018-02-27T03:01:22.596Z,99.90
2018-02-27T03:03:50.085Z,99.90
2018-02-27T03:06:18.316Z,99.90
2018-02-27T03:08:45.811Z,99.90
2018-02-27T03:11:13.298Z,99.90
2018-02-27T03:13:40.778Z,99.90
2018-02-27T03:16:08.261Z,99.90
2018-02-27T03:18:35.741Z,99.90
2018-02-27T03:21:04.002Z,99.90
2018-02-27T03:23:31.495Z,99.90
2018-02-27T03:25:59.745Z,99.90
2018-02-27T03:28:27.235Z,99.90
2018-02-27T03:30:54.721Z,99.90
2018-02-27T03:33:22.980Z,99.90
2018-02-27T03:35:50.469Z,99.90
2018-02-27T03:38:17.958Z,99.90
2018-02-27T03:40:45.468Z,99.90
2018-02-27T03:43:14.999Z,99.90
2018-02-27T03:45:42.577Z,99.90
2018-02-27T03:48:10.070Z,99.90
2018-02-27T03:50:41.062Z,99.90
2018-02-27T03:53:08.557Z,99.90
2018-02-27T03:55:36.806Z,99.90
2018-02-27T03:58:04.286Z,99.90
2018-02-27T04:00:32.537Z,99.90
2018-02-27T04:03:00.021Z,99.90
2018-02-27T04:05:28.280Z,99.90
2018-02-27T04:07:55.753Z,99.90
2018-02-27T04:10:24.014Z,99.90
2018-02-27T04:12:51.500Z,99.90
2018-02-27T04:15:18.988Z,99.90
2018-02-27T04:17:46.491Z,99.90
2018-02-27T04:20:14.749Z,99.90
2018-02-27T04:22:42.247Z,99.90
2018-02-27T04:25:09.746Z,99.90
2018-02-27T04:27:37.240Z,99.90
2018-02-27T04:30:04.710Z,99.90
2018-02-27T04:32:32.964Z,99.90
2018-02-27T04:35:00.449Z,99.90
2018-02-27T04:37:28.706Z,99.90
2018-02-27T04:39:56.999Z,99.90
2018-02-27T04:42:25.249Z,99.90
2018-02-27T04:44:52.819Z,99.90
2018-02-27T04:47:20.372Z,99.90
2018-02-27T04:49:47.845Z,99.90
2018-02-27T04:52:16.097Z,99.90
2018-02-27T04:54:43.582Z,99.90
2018-02-27T04:57:11.830Z,99.90
2018-02-27T04:59:39.327Z,99.90
2018-02-27T05:02:06.824Z,99.90
2018-02-27T05:04:34.319Z,99.90
2018-02-27T05:07:01.822Z,99.90
2018-02-27T05:09:29.302Z,99.90
2018-02-27T05:11:56.903Z,99.90
2018-02-27T05:14:25.160Z,99.90
2018-02-27T05:16:52.645Z,99.90
2018-02-27T05:19:20.892Z,99.90
2018-02-27T05:21:48.385Z,99.90
2018-02-27T05:24:15.848Z,99.90
2018-02-27T05:26:43.345Z,99.90
2018-02-27T05:29:10.828Z,99.90
2018-02-27T05:31:38.314Z,99.90
2018-02-27T05:34:05.802Z,99.90
2018-02-27T05:36:33.293Z,99.90
2018-02-27T05:39:00.777Z,99.90
2018-02-27T05:41:29.033Z,99.90
2018-02-27T05:43:57.088Z,99.90
2018-02-27T05:46:24.572Z,99.90
2018-02-27T05:48:52.825Z,99.90
2018-02-27T05:51:20.317Z,99.90
2018-02-27T05:53:48.599Z,99.90
2018-02-27T05:56:16.849Z,99.90
2018-02-27T05:58:44.342Z,99.90
2018-02-27T06:01:11.833Z,99.90
2018-02-27T06:03:39.322Z,99.90
2018-02-27T06:06:06.793Z,99.90
2018-02-27T06:08:35.063Z,99.90
2018-02-27T06:11:03.313Z,99.90
2018-02-27T06:13:30.784Z,99.90
2018-02-27T06:15:58.273Z,99.90
2018-02-27T06:21:20.083Z,99.90
2018-02-27T06:23:49.097Z,99.90
2018-02-27T06:26:17.364Z,99.90
2018-02-27T06:28:44.863Z,99.90
2018-02-27T06:31:12.342Z,99.90
2018-02-27T06:33:39.853Z,99.90
2018-02-27T06:36:08.125Z,99.90
2018-02-27T06:38:36.402Z,99.90
2018-02-27T06:41:04.667Z,99.90
2018-02-27T06:43:32.155Z,99.90
2018-02-27T06:45:59.638Z,99.90
2018-02-27T06:48:27.136Z,99.90
2018-02-27T06:50:54.624Z,99.80
2018-02-27T06:53:22.114Z,99.60
2018-02-27T06:55:49.588Z,99.60
2018-02-27T06:58:17.082Z,99.40
2018-02-27T07:00:45.330Z,98.70
2018-02-27T07:03:12.829Z,98.70
2018-02-27T07:05:41.074Z,99.10
2018-02-27T07:08:08.566Z,99.10
2018-02-27T07:10:36.085Z,98.80
2018-02-27T07:13:05.101Z,99.90
2018-02-27T07:15:33.369Z,99.90
2018-02-27T07:18:00.858Z,99.90
2018-02-27T07:20:28.323Z,99.90
2018-02-27T07:22:55.827Z,99.90
2018-02-27T07:25:23.306Z,99.80
2018-02-27T07:27:51.570Z,98.90
2018-02-27T07:30:19.845Z,98.30
2018-02-27T07:32:47.343Z,98.20
2018-02-27T07:35:14.848Z,97.80
2018-02-27T07:37:42.330Z,97.60
2018-02-27T07:40:10.578Z,97.50
2018-02-27T07:42:38.985Z,98.00
2018-02-27T07:45:07.242Z,97.90
2018-02-27T07:47:34.738Z,98.10
2018-02-27T07:50:02.219Z,97.30
2018-02-27T07:52:29.705Z,98.10
2018-02-27T07:54:57.179Z,96.90
2018-02-27T07:57:25.453Z,97.30
2018-02-27T07:59:52.930Z,97.20
2018-02-27T08:02:21.175Z,95.40
2018-02-27T08:04:48.679Z,95.40
2018-02-27T08:07:16.162Z,96.40
2018-02-27T08:09:43.641Z,96.00
2018-02-27T08:12:11.126Z,95.50
2018-02-27T08:14:38.631Z,96.20
2018-02-27T08:17:06.109Z,96.20
2018-02-27T08:19:33.612Z,97.40
2018-02-27T08:22:01.862Z,96.80
2018-02-27T08:24:29.357Z,96.80
2018-02-27T08:26:56.845Z,96.10
2018-02-27T08:29:24.332Z,97.70
2018-02-27T08:31:51.816Z,97.20
2018-02-27T08:34:20.087Z,98.40
2018-02-27T08:36:47.584Z,98.30
2018-02-27T08:39:15.069Z,97.40
2018-02-27T08:41:42.550Z,96.20
2018-02-27T08:44:10.043Z,95.80
2018-02-27T08:46:37.527Z,94.80
2018-02-27T08:49:05.016Z,95.80
2018-02-27T08:51:32.496Z,95.70
2018-02-27T08:54:00.778Z,99.90
2018-02-27T08:56:29.030Z,96.10
2018-02-27T08:58:56.517Z,96.10
2018-02-27T09:01:24.770Z,95.60
2018-02-27T09:03:52.275Z,95.60
2018-02-27T09:06:19.748Z,94.20
2018-02-27T09:08:47.241Z,94.40
2018-02-27T09:11:14.732Z,94.50
2018-02-27T09:13:42.225Z,92.80
2018-02-27T09:16:09.711Z,93.70
2018-02-27T09:18:37.207Z,93.50
2018-02-27T09:21:04.679Z,94.20
2018-02-27T09:23:32.171Z,92.90
2018-02-27T09:25:59.664Z,93.10
2018-02-27T09:28:27.924Z,93.10
2018-02-27T09:30:55.415Z,93.10
2018-02-27T09:33:22.908Z,92.40
2018-02-27T09:35:50.395Z,91.60
2018-02-27T09:38:17.871Z,91.20
2018-02-27T09:40:46.122Z,91.70
2018-02-27T09:43:13.596Z,91.60
2018-02-27T09:45:41.854Z,91.10
2018-02-27T09:48:09.342Z,91.10
2018-02-27T09:50:37.593Z,91.10
2018-02-27T09:53:05.061Z,91.10
2018-02-27T09:55:32.562Z,90.10
2018-02-27T09:58:00.049Z,89.70
2018-02-27T10:00:27.533Z,90.30
2018-02-27T10:02:55.107Z,91.20
2018-02-27T10:05:23.361Z,85.90
2018-02-27T10:07:50.841Z,85.80
2018-02-27T10:10:19.198Z,82.50
2018-02-27T10:12:46.669Z,82.20
2018-02-27T10:15:14.953Z,79.80
2018-02-27T10:17:43.214Z,78.90
2018-02-27T10:20:11.478Z,77.10
2018-02-27T10:22:38.990Z,76.90
2018-02-27T10:25:06.495Z,77.60
2018-02-27T10:27:34.029Z,78.40
2018-02-27T10:30:01.522Z,76.30
2018-02-27T10:32:28.996Z,76.40
2018-02-27T10:34:57.294Z,73.30
2018-02-27T10:37:24.773Z,73.20
2018-02-27T10:39:52.280Z,71.30
2018-02-27T10:42:20.522Z,75.00
2018-02-27T10:44:48.004Z,74.90
2018-02-27T10:47:15.500Z,73.50
2018-02-27T10:49:42.989Z,71.70
2018-02-27T10:52:10.588Z,71.00
2018-02-27T10:54:38.855Z,70.60
2018-02-27T10:57:06.343Z,70.50
2018-02-27T10:59:33.854Z,70.20
2018-02-27T11:02:03.137Z,69.40
2018-02-27T11:04:30.626Z,71.40
2018-02-27T11:06:59.013Z,69.40
2018-02-27T11:09:27.271Z,71.10
2018-02-27T11:11:54.772Z,71.10
2018-02-27T11:14:22.271Z,71.40
2018-02-27T11:16:49.782Z,73.50
2018-02-27T11:19:18.027Z,72.60
2018-02-27T11:21:45.521Z,72.50
2018-02-27T11:24:13.012Z,70.00
2018-02-27T11:26:40.554Z,68.30
2018-02-27T11:29:08.051Z,71.60
2018-02-27T11:31:35.557Z,75.40
2018-02-27T11:34:04.093Z,79.60
2018-02-27T11:36:31.611Z,79.50
2018-02-27T11:38:59.098Z,82.00
2018-02-27T11:41:26.580Z,80.80
2018-02-27T11:43:54.061Z,78.40
2018-02-27T11:46:23.060Z,74.20
2018-02-27T11:48:51.305Z,74.40
2018-02-27T11:51:18.789Z,74.20
2018-02-27T11:53:46.343Z,74.50
2018-02-27T11:56:14.612Z,73.80
2018-02-27T11:58:42.862Z,74.00
2018-02-27T12:01:11.312Z,75.10
2018-02-27T12:03:38.805Z,75.00
2018-02-27T12:06:06.321Z,71.30
2018-02-27T12:08:33.798Z,71.90
2018-02-27T12:11:02.182Z,72.30
2018-02-27T12:13:29.673Z,75.50
2018-02-27T12:15:57.943Z,73.90
2018-02-27T12:18:25.439Z,73.30
2018-02-27T12:20:52.963Z,73.50
2018-02-27T12:23:20.451Z,72.00
2018-02-27T12:25:47.934Z,72.40
2018-02-27T12:28:15.421Z,72.80
2018-02-27T12:30:42.909Z,70.90
2018-02-27T12:33:11.177Z,70.90
2018-02-27T12:35:39.432Z,70.70
2018-02-27T12:38:06.946Z,70.30
2018-02-27T12:40:34.448Z,69.60
2018-02-27T12:43:01.919Z,69.10
2018-02-27T12:45:29.399Z,71.70
2018-02-27T12:47:57.647Z,73.20
2018-02-27T12:50:25.133Z,73.10
2018-02-27T12:52:53.435Z,70.60
2018-02-27T12:55:21.638Z,68.40
2018-02-27T12:57:50.650Z,71.50
2018-02-27T13:00:18.140Z,71.10
2018-02-27T13:02:46.428Z,65.00
2018-02-27T13:05:14.000Z,64.80
2018-02-27T13:07:41.488Z,64.80
2018-02-27T13:10:10.064Z,66.60
2018-02-27T13:12:37.544Z,64.10
2018-02-27T13:15:05.027Z,65.20
2018-02-27T13:17:33.333Z,63.80
2018-02-27T13:20:00.822Z,63.80
2018-02-27T13:22:28.334Z,64.60
2018-02-27T13:24:55.817Z,65.70
2018-02-27T13:27:23.306Z,65.70
2018-02-27T13:29:51.549Z,63.90
2018-02-27T13:32:19.039Z,63.20
2018-02-27T13:34:47.455Z,63.20
2018-02-27T13:37:14.957Z,61.90
2018-02-27T13:39:42.439Z,61.90
2018-02-27T13:42:09.928Z,61.00
2018-02-27T13:44:37.408Z,60.90
2018-02-27T13:47:04.914Z,62.70
2018-02-27T13:49:32.421Z,62.50
2018-02-27T13:51:59.927Z,63.70
2018-02-27T13:54:27.402Z,62.10
2018-02-27T13:56:55.652Z,61.20
2018-02-27T13:59:23.128Z,61.20
2018-02-27T14:01:50.630Z,61.60
2018-02-27T14:04:18.107Z,59.70
2018-02-27T14:06:45.601Z,59.80
2018-02-27T14:09:13.850Z,60.00
2018-02-27T14:11:41.354Z,60.00
2018-02-27T14:14:08.840Z,60.70
2018-02-27T14:16:36.348Z,61.20
2018-02-27T14:19:03.826Z,61.00
2018-02-27T14:21:32.077Z,59.90
2018-02-27T14:23:59.595Z,59.90
2018-02-27T14:26:27.089Z,61.20
2018-02-27T14:28:54.572Z,62.10
2018-02-27T14:31:22.816Z,61.80
2018-02-27T14:33:51.816Z,61.90
2018-02-27T14:36:20.812Z,63.80
2018-02-27T14:38:48.302Z,63.70
2018-02-27T14:41:15.797Z,65.50
2018-02-27T14:43:43.313Z,65.40
2018-02-27T14:46:11.561Z,63.60
2018-02-27T14:48:39.047Z,63.60
2018-02-27T14:51:07.285Z,64.40
2018-02-27T14:53:34.793Z,64.40
2018-02-27T14:56:02.274Z,63.50
2018-02-27T14:58:29.769Z,61.60
2018-02-27T15:00:57.250Z,60.40
2018-02-27T15:03:25.514Z,59.70
2018-02-27T15:05:53.770Z,60.20
2018-02-27T15:08:21.270Z,60.00
2018-02-27T15:10:48.770Z,59.90
2018-02-27T15:13:17.027Z,59.30
2018-02-27T15:15:44.522Z,59.30
2018-02-27T15:18:12.012Z,58.70
2018-02-27T15:20:40.250Z,60.20
2018-02-27T15:23:07.737Z,60.10
2018-02-27T15:25:35.986Z,60.90
2018-02-27T15:28:03.500Z,60.50
2018-02-27T15:30:31.007Z,58.00
2018-02-27T15:32:58.489Z,58.10
2018-02-27T15:35:26.732Z,62.50
2018-02-27T15:37:54.317Z,63.00
2018-02-27T15:40:22.574Z,62.90
2018-02-27T15:42:50.072Z,62.90
2018-02-27T15:45:17.567Z,64.10
2018-02-27T15:47:45.072Z,64.80
2018-02-27T15:50:13.332Z,66.90
2018-02-27T15:52:41.608Z,65.40
2018-02-27T15:55:09.102Z,65.30
2018-02-27T15:57:36.607Z,67.30
2018-02-27T16:00:04.097Z,64.10
2018-02-27T16:02:32.364Z,64.30
2018-02-27T16:05:00.637Z,63.80
2018-02-27T16:07:28.110Z,63.50
2018-02-27T16:09:56.381Z,62.40
2018-02-27T16:12:24.627Z,62.70
2018-02-27T16:14:52.126Z,62.60
2018-02-27T16:17:20.380Z,65.50
2018-02-27T16:19:49.984Z,63.10
2018-02-27T16:22:17.474Z,63.10
2018-02-27T16:24:44.975Z,62.70
2018-02-27T16:27:12.460Z,61.80
2018-02-27T16:29:39.939Z,61.90
2018-02-27T16:32:08.191Z,62.20
2018-02-27T16:34:35.758Z,62.00
2018-02-27T16:37:04.037Z,62.00
2018-02-27T16:39:32.302Z,62.10
2018-02-27T16:41:59.794Z,62.00
2018-02-27T16:44:27.278Z,62.70
2018-02-27T16:46:54.766Z,62.50
2018-02-27T16:49:22.279Z,63.00
2018-02-27T16:51:49.761Z,63.20
2018-02-27T16:54:17.505Z,61.50
2018-02-27T16:56:45.742Z,63.60
2018-02-27T16:59:14.010Z,62.90
2018-02-27T17:01:41.494Z,62.90
2018-02-27T17:04:09.746Z,62.80
2018-02-27T17:06:37.221Z,62.70
2018-02-27T17:09:05.482Z,63.30
2018-02-27T17:11:33.738Z,65.00
2018-02-27T17:14:01.245Z,64.40
2018-02-27T17:16:28.725Z,62.00
2018-02-27T17:18:56.247Z,63.60
2018-02-27T17:21:24.500Z,64.60
2018-02-27T17:23:55.449Z,64.50
2018-02-27T17:26:23.698Z,65.10
2018-02-27T17:28:51.204Z,64.50
2018-02-27T17:31:18.710Z,63.60
2018-02-27T17:33:46.227Z,64.00
2018-02-27T17:36:13.774Z,64.90
2018-02-27T17:38:42.042Z,64.90
2018-02-27T17:41:20.104Z,64.20
2018-02-27T17:43:47.593Z,64.20
2018-02-27T17:46:15.081Z,64.20
2018-02-27T17:48:42.576Z,66.10
2018-02-27T17:51:10.092Z,64.60
2018-02-27T17:53:37.668Z,65.40
2018-02-27T17:56:05.233Z,65.10
2018-02-27T17:58:32.958Z,64.80
2018-02-27T18:01:01.225Z,65.60
2018-02-27T18:03:30.600Z,65.70
2018-02-27T18:05:58.896Z,65.80
2018-02-27T18:08:26.387Z,65.70
2018-02-27T18:10:53.896Z,65.30
2018-02-27T18:13:21.381Z,65.60
2018-02-27T18:15:48.883Z,65.80
2018-02-27T18:18:16.365Z,66.80
2018-02-27T18:20:45.319Z,67.30
2018-02-27T18:23:14.816Z,66.30
2018-02-27T18:25:44.388Z,66.20
2018-02-27T18:28:14.538Z,67.10
2018-02-27T18:30:42.575Z,67.10
2018-02-27T18:33:10.066Z,67.00
2018-02-27T18:35:38.331Z,67.00
2018-02-27T18:38:06.573Z,67.30
2018-02-27T18:40:34.075Z,67.20
2018-02-27T18:43:02.340Z,67.70
2018-02-27T18:45:29.838Z,67.60
2018-02-27T18:47:57.337Z,67.40
2018-02-27T18:50:25.597Z,67.40
2018-02-27T18:52:53.070Z,68.10
2018-02-27T18:55:27.474Z,67.00
2018-02-27T18:57:54.959Z,67.50
2018-02-27T19:00:22.453Z,67.90
2018-02-27T19:02:49.926Z,68.80
2018-02-27T19:05:17.425Z,69.30
2018-02-27T19:07:44.917Z,69.90
2018-02-27T19:10:13.171Z,71.40
2018-02-27T19:12:41.420Z,72.60
2018-02-27T19:15:08.928Z,72.60
2018-02-27T19:17:36.417Z,72.10
2018-02-27T19:20:03.901Z,72.70
2018-02-27T19:22:31.387Z,73.20
2018-02-27T19:24:59.649Z,73.60
2018-02-27T19:27:27.152Z,73.50
2018-02-27T19:29:54.639Z,74.00
2018-02-27T19:32:22.164Z,74.70
2018-02-27T19:34:50.400Z,75.00
2018-02-27T19:37:17.890Z,75.00
2018-02-27T19:39:45.391Z,75.40
2018-02-27T19:42:12.875Z,76.50
2018-02-27T19:44:41.873Z,75.80
2018-02-27T19:47:10.186Z,76.10
2018-02-27T19:49:37.808Z,76.00
2018-02-27T19:52:06.079Z,77.00
2018-02-27T19:54:33.591Z,76.90
2018-02-27T19:57:02.196Z,76.80
2018-02-27T19:59:29.716Z,76.90
2018-02-27T20:01:57.224Z,77.10
2018-02-27T20:04:24.726Z,78.10
2018-02-27T20:06:52.211Z,78.00
2018-02-27T20:09:19.705Z,78.60
2018-02-27T20:11:47.201Z,79.10
2018-02-27T20:14:32.313Z,79.60
2018-02-27T20:16:59.850Z,79.90
2018-02-27T20:19:28.137Z,80.30
2018-02-27T20:21:56.327Z,80.50
2018-02-27T20:24:23.831Z,80.50
2018-02-27T20:26:51.339Z,80.10
2018-02-27T20:29:20.691Z,79.50
2018-02-27T20:31:48.949Z,81.50
2018-02-27T20:34:16.442Z,81.50
2018-02-27T20:36:43.950Z,81.00
2018-02-27T20:39:17.251Z,82.30
2018-02-27T20:41:44.741Z,81.90
2018-02-27T20:44:12.235Z,82.30
2018-02-27T20:46:39.723Z,83.00
2018-02-27T20:49:08.707Z,82.80
2018-02-27T20:51:36.198Z,82.80
2018-02-27T20:54:04.461Z,81.90
2018-02-27T20:56:31.976Z,81.80
2018-02-27T20:58:59.457Z,83.90
2018-02-27T21:01:27.118Z,84.90
2018-02-27T21:03:54.597Z,85.60
2018-02-27T21:06:22.264Z,86.90
2018-02-27T21:08:50.544Z,87.60
2018-02-27T21:11:24.985Z,88.00
2018-02-27T21:13:52.492Z,88.00
2018-02-27T21:16:19.970Z,87.10
2018-02-27T21:18:47.466Z,88.70
2018-02-27T21:21:14.944Z,90.10
2018-02-27T21:23:42.446Z,90.40
2018-02-27T21:26:09.930Z,90.90
2018-02-27T21:28:37.499Z,92.10
2018-02-27T21:31:04.945Z,92.70
2018-02-27T21:33:32.451Z,92.50
2018-02-27T21:35:59.931Z,91.80
2018-02-27T21:38:27.439Z,91.40
2018-02-27T21:40:54.941Z,91.00
2018-02-27T21:43:22.451Z,91.10
2018-02-27T21:45:49.937Z,90.80
2018-02-27T21:48:17.443Z,90.30
2018-02-27T21:50:45.706Z,93.70
2018-02-27T21:53:13.962Z,93.80
2018-02-27T21:55:43.140Z,93.30
2018-02-27T21:58:10.623Z,93.30
2018-02-27T22:00:38.129Z,93.50
2018-02-27T22:03:05.634Z,93.90
2018-02-27T22:05:33.118Z,94.20
2018-02-27T22:08:01.397Z,94.70
2018-02-27T22:10:29.697Z,95.00
2018-02-27T22:12:57.199Z,94.90
2018-02-27T22:15:24.684Z,95.40
2018-02-27T22:17:52.961Z,96.90
2018-02-27T22:20:21.203Z,96.20
2018-02-27T22:22:48.710Z,96.10
2018-02-27T22:25:16.201Z,96.30
2018-02-27T22:27:43.700Z,96.60
2018-02-27T22:30:11.986Z,97.20
2018-02-27T22:32:40.237Z,98.30
2018-02-27T22:35:07.742Z,98.40
2018-02-27T22:37:35.266Z,98.70
2018-02-27T22:40:02.774Z,99.10
2018-02-27T22:42:30.266Z,99.00
2018-02-27T22:44:57.755Z,99.00
2018-02-27T22:47:25.998Z,99.50
2018-02-27T22:49:53.508Z,99.20
2018-02-27T22:52:20.992Z,99.10
2018-02-27T22:54:48.482Z,99.10
2018-02-27T22:57:15.971Z,97.80
2018-02-27T22:59:44.987Z,98.00
2018-02-27T23:02:12.423Z,97.90
2018-02-27T23:04:40.680Z,97.80
2018-02-27T23:07:08.923Z,98.80
2018-02-27T23:09:36.423Z,98.70
2018-02-27T23:12:04.668Z,99.60
2018-02-27T23:14:32.172Z,99.50
2018-02-27T23:16:59.664Z,99.40
2018-02-27T23:19:27.172Z,99.70
2018-02-27T23:21:55.425Z,99.30
2018-02-27T23:24:24.670Z,99.30
2018-02-27T23:26:54.904Z,99.80
2018-02-27T23:29:23.088Z,99.60
2018-02-27T23:31:50.756Z,98.50
2018-02-27T23:34:19.542Z,98.20
2018-02-27T23:36:47.014Z,97.40
2018-02-27T23:39:14.507Z,97.30
2018-02-27T23:41:42.768Z,97.20
2018-02-27T23:44:10.269Z,97.20
2018-02-27T23:46:37.758Z,96.50
2018-02-27T23:49:05.354Z,97.00
2018-02-27T23:51:33.597Z,99.70
2018-02-27T23:54:01.102Z,99.70
2018-02-27T23:56:28.603Z,99.30
2018-02-27T23:58:56.119Z,99.90
